createdAt,value
2023-01-29T00:02:05.432Z,22.0
2023-01-29T00:07:07.148Z,28.4
2023-01-29T00:12:04.981Z,28.4
2023-01-29T00:17:04.757Z,25.2
2023-01-29T00:22:04.586Z,22.4
2023-01-29T00:27:04.414Z,18.7
2023-01-29T00:32:04.439Z,20.4
2023-01-29T00:37:03.925Z,20.1
2023-01-29T00:42:03.723Z,18.1
2023-01-29T00:47:03.511Z,22.9
2023-01-29T00:52:03.327Z,22.0
2023-01-29T00:57:03.121Z,22.0
2023-01-29T01:02:03.004Z,20.2
2023-01-29T01:07:02.751Z,18.9
2023-01-29T01:12:02.575Z,22.1
2023-01-29T01:17:02.375Z,23.1
2023-01-29T01:22:02.222Z,23.4
2023-01-29T01:27:02.038Z,23.6
2023-01-29T01:32:01.922Z,18.0
2023-01-29T01:37:01.628Z,17.5
2023-01-29T01:42:01.458Z,18.1
2023-01-29T01:52:01.091Z,22.0
2023-01-29T01:57:01.376Z,24.5
2023-01-29T02:02:00.765Z,24.5
2023-01-29T02:07:00.456Z,19.0
2023-01-29T02:12:00.295Z,25.4
2023-01-29T02:17:02.217Z,25.4
2023-01-29T02:21:59.892Z,23.9
2023-01-29T02:26:59.628Z,20.2
2023-01-29T02:31:59.515Z,20.0
2023-01-29T02:36:59.278Z,20.1
2023-01-29T02:41:59.088Z,20.7
2023-01-29T02:46:58.798Z,19.8
2023-01-29T02:51:58.624Z,22.6
2023-01-29T02:56:58.404Z,23.5
2023-01-29T03:02:00.323Z,21.5
2023-01-29T03:06:58.003Z,21.5
2023-01-29T03:11:57.825Z,27.2
2023-01-29T03:17:00.109Z,17.4
2023-01-29T03:21:57.376Z,17.7
2023-01-29T03:26:59.148Z,19.6
2023-01-29T03:32:01.565Z,18.3
2023-01-29T03:36:56.894Z,18.3
2023-01-29T03:41:56.772Z,17.1
2023-01-29T03:46:56.352Z,14.8
2023-01-29T03:51:56.157Z,14.8
2023-01-29T03:56:55.999Z,18.0
2023-01-29T04:01:55.789Z,16.4
2023-01-29T04:06:55.568Z,15.6
2023-01-29T04:11:55.379Z,14.2
2023-01-29T04:16:55.198Z,16.7
2023-01-29T04:21:55.093Z,16.7
2023-01-29T04:26:56.915Z,17.6
2023-01-29T04:31:58.679Z,17.7
2023-01-29T04:36:54.469Z,14.8
2023-01-29T04:41:58.297Z,14.8
2023-01-29T04:46:54.090Z,14.8
2023-01-29T04:51:53.941Z,15.9
2023-01-29T04:56:53.725Z,13.6
2023-01-29T05:01:53.609Z,13.6
2023-01-29T05:06:55.352Z,12.9
2023-01-29T05:11:53.214Z,15.4
2023-01-29T05:16:52.999Z,12.9
2023-01-29T05:21:52.782Z,13.9
2023-01-29T05:26:52.599Z,13.8
2023-01-29T05:31:52.480Z,13.2
2023-01-29T05:36:52.163Z,13.2
2023-01-29T05:41:52.014Z,14.4
2023-01-29T05:46:51.891Z,17.2
2023-01-29T05:51:51.674Z,17.2
2023-01-29T05:56:52.717Z,13.8
2023-01-29T06:01:51.355Z,9.5
2023-01-29T06:06:53.059Z,10.5
2023-01-29T06:16:50.686Z,10.7
2023-01-29T06:21:50.567Z,11.6
2023-01-29T06:31:50.404Z,12.3
2023-01-29T06:36:50.044Z,15.0
2023-01-29T06:41:49.961Z,9.5
2023-01-29T06:46:49.776Z,9.2
2023-01-29T06:51:49.692Z,12.2
2023-01-29T06:56:49.425Z,14.2
2023-01-29T07:01:51.401Z,8.8
2023-01-29T07:06:49.117Z,7.5
2023-01-29T07:11:48.963Z,7.9
2023-01-29T07:16:48.786Z,9.8
2023-01-29T07:21:48.611Z,7.8
2023-01-29T07:26:48.448Z,9.3
2023-01-29T07:31:48.395Z,9.4
2023-01-29T07:36:48.112Z,13.6
2023-01-29T07:41:47.978Z,12.0
2023-01-29T07:46:47.787Z,12.0
2023-01-29T07:51:51.670Z,10.9
2023-01-29T07:56:47.464Z,10.9
2023-01-29T08:01:47.442Z,9.1
2023-01-29T08:06:47.161Z,11.7
2023-01-29T08:11:47.202Z,12.9
2023-01-29T08:16:46.946Z,13.3
2023-01-29T08:21:49.506Z,13.5
2023-01-29T08:26:46.600Z,8.8
2023-01-29T08:31:46.510Z,13.0
2023-01-29T08:36:46.317Z,16.8
2023-01-29T08:41:46.183Z,16.2
2023-01-29T08:46:46.049Z,9.4
2023-01-29T08:51:45.919Z,9.4
2023-01-29T08:56:45.810Z,13.0
2023-01-29T09:06:45.556Z,8.7
2023-01-29T09:11:45.543Z,9.8
2023-01-29T09:16:45.380Z,10.2
2023-01-29T09:21:45.332Z,10.9
2023-01-29T09:26:47.214Z,9.7
2023-01-29T09:31:49.866Z,9.7
2023-01-29T09:36:45.095Z,12.3
2023-01-29T09:41:45.106Z,12.3
2023-01-29T09:46:44.910Z,7.9
2023-01-29T09:51:44.796Z,8.9
2023-01-29T09:56:44.705Z,7.7
2023-01-29T10:01:44.756Z,12.2
2023-01-29T10:06:44.726Z,5.3
2023-01-29T10:11:46.561Z,5.5
2023-01-29T10:16:44.483Z,5.5
2023-01-29T10:21:44.380Z,6.2
2023-01-29T10:26:44.448Z,6.2
2023-01-29T10:31:44.396Z,5.9
2023-01-29T10:36:44.253Z,11.5
2023-01-29T10:41:44.205Z,4.3
2023-01-29T10:46:44.125Z,6.4
2023-01-29T10:51:44.079Z,7.4
2023-01-29T10:56:44.015Z,7.7
2023-01-29T11:01:43.998Z,5.5
2023-01-29T11:06:43.869Z,4.9
2023-01-29T11:11:43.872Z,5.0
2023-01-29T11:16:45.804Z,3.0
2023-01-29T11:21:43.709Z,4.2
2023-01-29T11:26:43.694Z,6.0
2023-01-29T11:31:43.701Z,4.4
2023-01-29T11:36:43.578Z,4.9
2023-01-29T11:46:46.733Z,3.7
2023-01-29T12:01:43.555Z,3.2
2023-01-29T12:06:43.384Z,2.1
2023-01-29T12:16:43.241Z,1.3
2023-01-29T12:21:43.264Z,3.4
2023-01-29T12:26:43.252Z,1.7
2023-01-29T12:36:43.230Z,3.2
2023-01-29T12:41:45.128Z,3.2
2023-01-29T12:46:45.746Z,2.3
2023-01-29T12:51:43.219Z,2.5
2023-01-29T13:01:43.308Z,4.1
2023-01-29T13:06:43.258Z,4.7
2023-01-29T13:11:43.247Z,1.3
2023-01-29T13:21:43.236Z,5.1
2023-01-29T13:26:43.269Z,2.6
2023-01-29T13:31:43.344Z,2.6
2023-01-29T13:41:43.300Z,2.0
2023-01-29T13:46:43.326Z,1.1
2023-01-29T13:56:43.386Z,0.9
2023-01-29T14:01:43.423Z,2.1
2023-01-29T14:06:43.381Z,4.5
2023-01-29T14:11:43.431Z,3.7
2023-01-29T14:21:43.478Z,2.5
2023-01-29T14:26:43.647Z,1.8
2023-01-29T14:36:43.539Z,2.6
2023-01-29T14:41:43.541Z,1.7
2023-01-29T14:51:45.544Z,2.1
2023-01-29T14:56:43.547Z,1.4
2023-01-29T15:01:45.585Z,1.4
2023-01-29T15:06:43.585Z,3.0
2023-01-29T15:11:47.572Z,1.5
2023-01-29T15:16:43.532Z,2.2
2023-01-29T15:21:43.559Z,2.6
2023-01-29T15:26:43.564Z,1.5
2023-01-29T15:31:45.689Z,2.7
2023-01-29T15:36:43.542Z,2.7
2023-01-29T15:41:43.530Z,1.6
2023-01-29T15:46:43.537Z,2.1
2023-01-29T15:51:45.527Z,2.3
2023-01-29T15:56:43.557Z,2.3
2023-01-29T16:01:43.706Z,4.3
2023-01-29T16:06:43.481Z,3.3
2023-01-29T16:11:43.511Z,7.3
2023-01-29T16:16:43.391Z,5.5
2023-01-29T16:21:43.486Z,5.2
2023-01-29T16:26:43.552Z,3.3
2023-01-29T16:31:43.512Z,3.3
2023-01-29T16:36:43.810Z,3.3
2023-01-29T16:46:43.504Z,3.5
2023-01-29T16:51:43.448Z,2.6
2023-01-29T16:56:43.287Z,3.0
2023-01-29T17:01:43.231Z,3.0
2023-01-29T17:06:43.199Z,6.3
2023-01-29T17:11:43.181Z,3.2
2023-01-29T17:16:43.113Z,6.7
2023-01-29T17:21:43.079Z,3.7
2023-01-29T17:26:43.171Z,4.0
2023-01-29T17:31:43.040Z,6.6
2023-01-29T17:36:43.004Z,6.6
2023-01-29T17:41:42.974Z,5.4
2023-01-29T17:46:43.070Z,3.4
2023-01-29T17:51:42.850Z,3.4
2023-01-29T17:56:42.861Z,3.7
2023-01-29T18:01:42.844Z,4.9
2023-01-29T18:06:42.738Z,2.0
2023-01-29T18:11:42.642Z,2.4
2023-01-29T18:16:42.611Z,4.1
2023-01-29T18:21:44.547Z,4.1
2023-01-29T18:26:42.560Z,5.0
2023-01-29T18:31:42.429Z,8.5
2023-01-29T18:36:44.353Z,6.3
2023-01-29T18:41:44.305Z,6.3
2023-01-29T18:46:42.223Z,4.0
2023-01-29T18:51:42.125Z,3.8
2023-01-29T18:57:08.701Z,3.8
2023-01-29T19:01:42.007Z,7.2
2023-01-29T19:11:41.827Z,4.6
2023-01-29T19:16:41.823Z,6.6
2023-01-29T19:21:41.696Z,4.2
2023-01-29T19:26:41.732Z,3.5
2023-01-29T19:31:41.524Z,5.0
2023-01-29T19:36:41.459Z,6.6
2023-01-29T19:41:44.218Z,6.0
2023-01-29T19:46:43.813Z,6.9
2023-01-29T19:51:41.145Z,4.9
2023-01-29T19:56:41.005Z,7.0
2023-01-29T20:01:40.948Z,4.4
2023-01-29T20:06:43.454Z,1.7
2023-01-29T20:11:40.766Z,3.1
2023-01-29T20:16:40.744Z,3.1
2023-01-29T20:21:43.062Z,3.7
2023-01-29T20:26:40.538Z,3.0
2023-01-29T20:31:40.392Z,4.6
2023-01-29T20:36:40.274Z,2.9
2023-01-29T20:41:40.175Z,3.3
2023-01-29T20:46:40.089Z,3.0
2023-01-29T20:51:40.056Z,4.8
2023-01-29T20:56:44.763Z,2.5
2023-01-29T21:01:39.840Z,3.8
2023-01-29T21:06:39.742Z,3.7
2023-01-29T21:11:39.743Z,3.1
2023-01-29T21:16:39.744Z,3.8
2023-01-29T21:21:39.492Z,3.2
2023-01-29T21:26:39.465Z,4.4
2023-01-29T21:31:39.403Z,2.6
2023-01-29T21:36:39.402Z,3.6
2023-01-29T21:41:39.230Z,8.6
2023-01-29T21:46:39.182Z,8.6
2023-01-29T21:51:39.163Z,5.4
2023-01-29T21:56:39.165Z,6.7
2023-01-29T22:01:39.266Z,6.7
2023-01-29T22:06:38.953Z,8.0
2023-01-29T22:11:38.911Z,6.9
2023-01-29T22:16:38.901Z,3.9
2023-01-29T22:21:38.720Z,2.9
2023-01-29T22:26:38.736Z,3.3
2023-01-29T22:31:38.588Z,2.3
2023-01-29T22:36:38.491Z,6.1
2023-01-29T22:41:38.444Z,4.9
2023-01-29T22:51:38.164Z,6.1
2023-01-29T22:56:38.101Z,12.1
2023-01-29T23:01:38.081Z,4.2
2023-01-29T23:06:37.981Z,3.4
2023-01-29T23:11:40.354Z,4.8
2023-01-29T23:16:37.798Z,19.3
2023-01-29T23:21:37.836Z,2.6
2023-01-29T23:26:37.732Z,4.7
2023-01-29T23:31:37.567Z,6.8
2023-01-29T23:36:37.412Z,3.9
2023-01-29T23:41:37.312Z,9.9
2023-01-29T23:46:37.289Z,6.2
2023-01-29T23:51:37.131Z,4.3
2023-01-29T23:56:37.122Z,3.7
